createdAt,value
2023-01-23T00:00:00.993Z,16.02
2023-01-23T00:01:04.747Z,15.88
2023-01-23T00:02:07.788Z,17.55
2023-01-23T00:03:09.736Z,15.50
2023-01-23T00:04:14.766Z,17.38
2023-01-23T00:05:16.953Z,17.30
2023-01-23T00:06:19.978Z,15.48
2023-01-23T00:07:21.948Z,14.65
2023-01-23T00:08:24.878Z,16.40
2023-01-23T00:09:28.184Z,14.70
2023-01-23T00:10:31.118Z,16.13
2023-01-23T00:11:33.236Z,16.88
2023-01-23T00:12:36.190Z,17.52
2023-01-23T00:13:38.457Z,17.23
2023-01-23T00:14:41.301Z,17.10
2023-01-23T00:15:43.410Z,16.90
2023-01-23T00:16:46.390Z,15.70
2023-01-23T00:17:52.164Z,17.40
2023-01-23T00:18:57.319Z,17.45
2023-01-23T00:19:59.610Z,15.23
2023-01-23T00:21:05.780Z,15.60
2023-01-23T00:22:08.690Z,16.27
2023-01-23T00:23:11.237Z,17.52
2023-01-23T00:24:14.366Z,17.08
2023-01-23T00:25:17.871Z,15.73
2023-01-23T00:26:24.756Z,16.38
2023-01-23T00:27:26.866Z,15.85
2023-01-23T00:28:29.827Z,16.85
2023-01-23T00:29:32.739Z,17.13
2023-01-23T00:30:34.751Z,18.02
2023-01-23T00:31:40.226Z,15.60
2023-01-23T00:32:43.524Z,17.85
2023-01-23T00:33:47.386Z,17.33
2023-01-23T00:34:50.733Z,16.80
2023-01-23T00:35:54.508Z,18.77
2023-01-23T00:36:57.433Z,17.83
2023-01-23T00:37:59.357Z,15.43
2023-01-23T00:39:03.032Z,18.00
2023-01-23T00:40:06.000Z,17.33
2023-01-23T00:41:10.513Z,17.33
2023-01-23T00:42:12.564Z,19.63
2023-01-23T00:43:15.421Z,18.73
2023-01-23T00:44:18.707Z,20.17
2023-01-23T00:45:20.580Z,19.88
2023-01-23T00:46:23.884Z,18.48
2023-01-23T00:47:26.135Z,19.13
2023-01-23T00:48:29.487Z,18.98
2023-01-23T00:49:31.590Z,18.85
2023-01-23T00:50:35.182Z,16.33
2023-01-23T00:51:38.468Z,18.80
2023-01-23T00:52:41.350Z,19.30
2023-01-23T00:53:44.046Z,20.08
2023-01-23T00:54:47.157Z,19.77
2023-01-23T00:55:49.053Z,17.65
2023-01-23T00:56:53.427Z,17.33
2023-01-23T00:57:57.707Z,17.38
2023-01-23T00:59:00.722Z,17.00
2023-01-23T01:00:03.185Z,16.65
2023-01-23T01:01:06.447Z,18.33
2023-01-23T01:02:08.635Z,16.30
2023-01-23T01:03:11.658Z,17.60
2023-01-23T01:04:13.634Z,16.25
2023-01-23T01:05:18.223Z,16.63
2023-01-23T01:06:22.492Z,15.60
2023-01-23T01:07:25.931Z,17.85
2023-01-23T01:08:28.124Z,16.65
2023-01-23T01:09:33.144Z,16.88
2023-01-23T01:10:35.136Z,16.35
2023-01-23T01:11:38.093Z,17.83
2023-01-23T01:12:41.687Z,17.65
2023-01-23T01:13:45.523Z,15.15
2023-01-23T01:14:47.514Z,16.00
2023-01-23T01:15:52.615Z,16.00
2023-01-23T01:16:54.583Z,17.13
2023-01-23T01:17:57.688Z,15.95
2023-01-23T01:19:00.639Z,18.15
2023-01-23T01:20:04.118Z,16.35
2023-01-23T01:21:08.718Z,17.85
2023-01-23T01:22:10.814Z,19.42
2023-01-23T01:23:14.064Z,18.05
2023-01-23T01:24:16.046Z,18.27
2023-01-23T01:25:19.307Z,16.75
2023-01-23T01:26:23.006Z,16.40
2023-01-23T01:27:26.831Z,16.80
2023-01-23T01:28:34.490Z,17.60
2023-01-23T01:29:37.426Z,17.08
2023-01-23T01:30:41.223Z,16.10
2023-01-23T01:31:44.369Z,16.95
2023-01-23T01:32:47.843Z,16.52
2023-01-23T01:33:51.091Z,17.02
2023-01-23T01:34:54.149Z,16.70
2023-01-23T01:35:57.277Z,15.88
2023-01-23T01:36:59.211Z,17.27
2023-01-23T01:38:02.095Z,16.25
2023-01-23T01:39:04.178Z,16.27
2023-01-23T01:40:09.872Z,15.75
2023-01-23T01:41:13.265Z,15.13
2023-01-23T01:42:16.205Z,15.38
2023-01-23T01:43:21.270Z,15.80
2023-01-23T01:44:26.473Z,17.40
2023-01-23T01:46:06.096Z,17.80
2023-01-23T01:47:10.929Z,16.58
2023-01-23T01:48:13.139Z,14.82
2023-01-23T01:49:20.100Z,16.08
2023-01-23T01:50:22.535Z,15.50
2023-01-23T01:51:30.905Z,19.52
2023-01-23T01:52:32.827Z,16.05
2023-01-23T01:53:37.707Z,15.65
2023-01-23T01:54:43.777Z,15.77
2023-01-23T01:55:46.351Z,16.23
2023-01-23T01:56:52.907Z,17.02
2023-01-23T01:57:54.978Z,17.80
2023-01-23T01:58:58.908Z,16.95
2023-01-23T02:00:06.565Z,15.30
2023-01-23T02:01:16.883Z,15.65
2023-01-23T02:02:25.680Z,16.35
2023-01-23T02:03:30.589Z,17.13
2023-01-23T02:04:34.786Z,15.15
2023-01-23T02:05:39.688Z,16.88
2023-01-23T02:06:45.026Z,15.27
2023-01-23T02:07:54.525Z,15.77
2023-01-23T02:09:03.868Z,16.90
2023-01-23T02:10:07.875Z,14.65
2023-01-23T02:11:11.066Z,14.45
2023-01-23T02:12:13.474Z,17.15
2023-01-23T02:13:30.492Z,17.25
2023-01-23T02:14:32.498Z,15.05
2023-01-23T02:15:36.974Z,14.50
2023-01-23T02:16:41.218Z,15.18
2023-01-23T02:17:45.230Z,17.00
2023-01-23T02:18:49.762Z,15.80
2023-01-23T02:20:04.257Z,15.65
2023-01-23T02:21:08.309Z,15.98
2023-01-23T02:22:27.410Z,15.55
2023-01-23T02:23:42.552Z,14.95
2023-01-23T02:24:58.432Z,14.80
2023-01-23T02:26:06.765Z,15.30
2023-01-23T02:27:09.811Z,14.00
2023-01-23T02:28:15.008Z,15.65
2023-01-23T02:29:19.288Z,16.02
2023-01-23T02:30:29.850Z,15.18
2023-01-23T02:31:33.219Z,15.82
2023-01-23T02:32:35.890Z,15.43
2023-01-23T02:33:51.205Z,16.17
2023-01-23T02:34:58.004Z,15.32
2023-01-23T02:36:01.770Z,15.43
2023-01-23T02:37:07.320Z,15.20
2023-01-23T02:38:10.291Z,16.52
2023-01-23T02:39:15.419Z,15.73
2023-01-23T02:40:18.068Z,15.25
2023-01-23T02:41:28.658Z,15.27
2023-01-23T02:42:31.923Z,14.77
2023-01-23T02:43:38.506Z,15.10
2023-01-23T02:44:42.605Z,16.45
2023-01-23T02:45:45.818Z,16.38
2023-01-23T02:46:49.863Z,15.70
2023-01-23T02:47:52.818Z,15.70
2023-01-23T02:48:57.097Z,16.27
2023-01-23T02:50:00.986Z,15.80
2023-01-23T02:51:03.429Z,15.50
2023-01-23T02:52:07.987Z,16.10
2023-01-23T02:53:10.949Z,15.05
2023-01-23T02:54:13.883Z,16.60
2023-01-23T02:55:15.879Z,16.40
2023-01-23T02:56:19.945Z,16.80
2023-01-23T02:57:23.300Z,14.27
2023-01-23T02:58:43.886Z,15.50
2023-01-23T03:00:04.130Z,15.57
2023-01-23T03:01:11.258Z,14.32
2023-01-23T03:02:15.930Z,15.85
2023-01-23T03:03:18.852Z,17.17
2023-01-23T03:04:21.820Z,16.05
2023-01-23T03:05:23.875Z,16.83
2023-01-23T03:06:28.446Z,16.10
2023-01-23T03:07:30.381Z,16.17
2023-01-23T03:08:36.716Z,17.58
2023-01-23T03:09:39.805Z,16.58
2023-01-23T03:10:42.644Z,17.20
2023-01-23T03:11:46.827Z,15.88
2023-01-23T03:12:50.152Z,16.60
2023-01-23T03:13:53.329Z,14.93
2023-01-23T03:14:56.419Z,14.73
2023-01-23T03:15:59.470Z,16.45
2023-01-23T03:17:02.486Z,14.10
2023-01-23T03:18:08.909Z,16.45
2023-01-23T03:19:11.951Z,16.63
2023-01-23T03:20:13.935Z,16.98
2023-01-23T03:21:17.954Z,16.90
2023-01-23T03:22:20.879Z,15.63
2023-01-23T03:23:22.794Z,15.23
2023-01-23T03:24:26.285Z,16.30
2023-01-23T03:25:28.317Z,14.48
2023-01-23T03:26:31.610Z,17.27
2023-01-23T03:27:34.958Z,16.33
2023-01-23T03:28:56.721Z,15.77
2023-01-23T03:30:15.880Z,14.43
2023-01-23T03:31:18.707Z,12.13
2023-01-23T03:32:22.539Z,14.13
2023-01-23T03:33:25.639Z,15.88
2023-01-23T03:34:28.630Z,15.50
2023-01-23T03:35:30.499Z,16.10
2023-01-23T03:36:37.266Z,14.85
2023-01-23T03:37:39.665Z,13.57
2023-01-23T03:39:03.472Z,15.30
2023-01-23T03:40:25.419Z,13.93
2023-01-23T03:41:28.960Z,16.30
2023-01-23T03:42:36.269Z,14.13
2023-01-23T03:43:42.056Z,16.17
2023-01-23T03:44:44.094Z,15.75
2023-01-23T03:45:47.237Z,17.80
2023-01-23T03:46:50.860Z,15.10
2023-01-23T03:47:53.805Z,16.80
2023-01-23T03:48:55.779Z,16.60
2023-01-23T03:49:58.676Z,15.20
2023-01-23T03:51:00.681Z,15.40
2023-01-23T03:52:07.390Z,16.30
2023-01-23T03:53:09.607Z,14.27
2023-01-23T03:54:14.653Z,14.90
2023-01-23T03:55:16.613Z,13.40
2023-01-23T03:56:21.651Z,16.42
2023-01-23T03:57:23.604Z,17.23
2023-01-23T03:58:43.275Z,15.80
2023-01-23T03:59:47.950Z,13.85
2023-01-23T04:00:52.829Z,14.27
2023-01-23T04:01:57.982Z,13.75
2023-01-23T04:03:01.278Z,14.60
2023-01-23T04:04:04.592Z,15.15
2023-01-23T04:05:08.736Z,16.73
2023-01-23T04:06:10.868Z,14.27
2023-01-23T04:07:14.311Z,16.52
2023-01-23T04:08:18.328Z,14.95
2023-01-23T04:09:26.091Z,16.00
2023-01-23T04:10:29.637Z,14.65
2023-01-23T04:11:38.887Z,17.95
2023-01-23T04:12:42.664Z,15.32
2023-01-23T04:13:47.629Z,14.88
2023-01-23T04:14:49.556Z,15.60
2023-01-23T04:15:52.502Z,14.90
2023-01-23T04:16:54.642Z,14.63
2023-01-23T04:17:57.599Z,14.63
2023-01-23T04:19:00.996Z,14.20
2023-01-23T04:20:04.157Z,14.60
2023-01-23T04:21:07.003Z,15.82
2023-01-23T04:22:10.464Z,16.42
2023-01-23T04:23:22.051Z,14.85
2023-01-23T04:24:25.132Z,15.35
2023-01-23T04:25:28.538Z,15.63
2023-01-23T04:26:31.743Z,15.32
2023-01-23T04:27:33.711Z,15.20
2023-01-23T04:28:37.401Z,15.43
2023-01-23T04:29:40.904Z,16.27
2023-01-23T04:30:45.344Z,14.57
2023-01-23T04:31:54.525Z,14.32
2023-01-23T04:32:58.145Z,15.40
2023-01-23T04:34:00.135Z,16.13
2023-01-23T04:35:03.720Z,16.10
2023-01-23T04:36:07.517Z,15.90
2023-01-23T04:37:10.915Z,14.57
2023-01-23T04:38:12.794Z,14.90
2023-01-23T04:39:15.664Z,15.40
2023-01-23T04:40:21.956Z,17.38
2023-01-23T04:41:31.890Z,16.92
2023-01-23T04:42:41.271Z,16.60
2023-01-23T04:43:47.581Z,18.42
2023-01-23T04:44:50.874Z,16.55
2023-01-23T04:46:12.213Z,15.52
2023-01-23T04:47:31.291Z,14.70
2023-01-23T04:48:34.977Z,16.95
2023-01-23T04:49:37.104Z,16.60
2023-01-23T04:50:40.937Z,17.88
2023-01-23T04:51:44.514Z,18.75
2023-01-23T04:52:47.554Z,16.42
2023-01-23T04:53:49.571Z,15.75
2023-01-23T04:54:53.184Z,13.07
2023-01-23T04:55:55.173Z,16.05
2023-01-23T04:56:58.147Z,16.52
2023-01-23T04:58:00.833Z,15.88
2023-01-23T04:59:05.465Z,15.05
2023-01-23T05:00:10.670Z,15.73
2023-01-23T05:01:13.696Z,16.35
2023-01-23T05:02:15.819Z,15.85
2023-01-23T05:03:20.640Z,15.68
2023-01-23T05:04:23.144Z,17.13
2023-01-23T05:05:26.924Z,14.63
2023-01-23T05:06:33.461Z,14.18
2023-01-23T05:07:36.646Z,14.48
2023-01-23T05:08:44.395Z,13.98
2023-01-23T05:10:05.655Z,14.02
2023-01-23T05:11:07.844Z,12.90
2023-01-23T05:12:10.894Z,15.85
2023-01-23T05:13:14.025Z,16.45
2023-01-23T05:14:16.988Z,14.75
2023-01-23T05:15:22.873Z,14.18
2023-01-23T05:16:27.130Z,13.85
2023-01-23T05:17:50.580Z,14.48
2023-01-23T05:18:53.587Z,13.50
2023-01-23T05:19:55.520Z,12.10
2023-01-23T05:20:58.969Z,13.98
2023-01-23T05:22:01.295Z,14.70
2023-01-23T05:23:04.352Z,15.88
2023-01-23T05:24:17.370Z,13.55
2023-01-23T05:25:22.435Z,15.73
2023-01-23T05:26:24.523Z,14.18
2023-01-23T05:27:29.205Z,14.35
2023-01-23T05:28:31.183Z,13.45
2023-01-23T05:29:34.982Z,14.25
2023-01-23T05:30:43.157Z,14.02
2023-01-23T05:31:54.196Z,14.25
2023-01-23T05:33:14.943Z,13.20
2023-01-23T05:34:17.058Z,14.00
2023-01-23T05:35:20.157Z,14.32
2023-01-23T05:36:22.064Z,14.68
2023-01-23T05:37:25.738Z,12.75
2023-01-23T05:38:40.332Z,12.95
2023-01-23T05:39:43.713Z,14.80
2023-01-23T05:40:46.858Z,16.35
2023-01-23T05:41:51.662Z,16.13
2023-01-23T05:43:20.481Z,13.43
2023-01-23T05:44:51.393Z,12.32
2023-01-23T05:46:07.548Z,14.93
2023-01-23T05:47:28.996Z,14.20
2023-01-23T05:48:32.208Z,12.70
2023-01-23T05:49:36.027Z,13.10
2023-01-23T05:50:38.135Z,14.63
2023-01-23T05:51:41.522Z,13.38
2023-01-23T05:52:44.102Z,12.88
2023-01-23T05:53:47.286Z,13.95
2023-01-23T05:54:50.430Z,14.93
2023-01-23T05:55:53.814Z,14.60
2023-01-23T05:56:56.832Z,15.45
2023-01-23T05:58:18.145Z,14.45
2023-01-23T05:59:52.908Z,13.50
2023-01-23T06:01:17.709Z,12.60
2023-01-23T06:02:39.225Z,13.52
2023-01-23T06:04:16.276Z,13.80
2023-01-23T06:05:45.694Z,12.88
2023-01-23T06:06:53.830Z,12.57
2023-01-23T06:07:55.864Z,13.73
2023-01-23T06:08:59.939Z,14.80
2023-01-23T06:10:01.916Z,16.08
2023-01-23T06:11:05.276Z,15.88
2023-01-23T06:12:08.021Z,14.50
2023-01-23T06:13:10.888Z,14.02
2023-01-23T06:14:13.129Z,13.02
2023-01-23T06:15:16.115Z,14.57
2023-01-23T06:16:20.959Z,13.55
2023-01-23T06:17:23.993Z,13.80
2023-01-23T06:18:26.560Z,15.25
2023-01-23T06:19:30.210Z,14.02
2023-01-23T06:20:32.792Z,14.18
2023-01-23T06:21:36.037Z,15.45
2023-01-23T06:22:38.788Z,15.70
2023-01-23T06:23:47.151Z,13.40
2023-01-23T06:24:52.630Z,13.70
2023-01-23T06:25:59.436Z,14.48
2023-01-23T06:27:04.159Z,13.70
2023-01-23T06:28:06.303Z,13.82
2023-01-23T06:29:11.014Z,14.48
2023-01-23T06:30:14.116Z,15.90
2023-01-23T06:31:19.057Z,14.07
2023-01-23T06:32:29.812Z,14.38
2023-01-23T06:33:33.425Z,13.70
2023-01-23T06:34:36.584Z,14.82
2023-01-23T06:35:41.356Z,14.60
2023-01-23T06:36:43.578Z,14.82
2023-01-23T06:37:47.130Z,15.77
2023-01-23T06:38:52.387Z,16.85
2023-01-23T06:40:00.005Z,15.07
2023-01-23T06:41:02.254Z,15.40
2023-01-23T06:42:11.060Z,13.90
2023-01-23T06:43:18.100Z,14.43
2023-01-23T06:44:21.034Z,14.50
2023-01-23T06:45:23.010Z,15.68
2023-01-23T06:46:27.246Z,15.43
2023-01-23T06:47:31.050Z,16.02
2023-01-23T06:48:37.399Z,16.60
2023-01-23T06:49:39.392Z,17.92
2023-01-23T06:50:44.016Z,13.60
2023-01-23T06:51:46.175Z,16.05
2023-01-23T06:52:49.158Z,15.45
2023-01-23T06:53:51.269Z,13.23
2023-01-23T06:54:54.126Z,12.95
2023-01-23T06:55:59.994Z,15.18
2023-01-23T06:57:05.484Z,15.30
2023-01-23T06:58:07.792Z,15.77
2023-01-23T06:59:10.705Z,15.27
2023-01-23T07:00:14.747Z,14.93
2023-01-23T07:01:19.379Z,15.77
2023-01-23T07:02:46.755Z,13.00
2023-01-23T07:03:48.710Z,13.70
2023-01-23T07:04:51.685Z,14.65
2023-01-23T07:05:53.672Z,14.70
2023-01-23T07:06:56.504Z,14.15
2023-01-23T07:07:59.236Z,13.70
2023-01-23T07:09:02.713Z,15.93
2023-01-23T07:10:06.962Z,15.75
2023-01-23T07:11:09.988Z,14.90
2023-01-23T07:12:13.427Z,14.45
2023-01-23T07:13:16.295Z,16.77
2023-01-23T07:14:18.556Z,15.38
2023-01-23T07:15:24.257Z,15.18
2023-01-23T07:16:27.368Z,13.02
2023-01-23T07:17:30.591Z,15.70
2023-01-23T07:18:35.979Z,14.85
2023-01-23T07:19:42.163Z,15.07
2023-01-23T07:20:49.787Z,15.27
2023-01-23T07:21:51.839Z,14.38
2023-01-23T07:22:54.779Z,15.15
2023-01-23T07:23:56.896Z,14.57
2023-01-23T07:24:59.836Z,17.42
2023-01-23T07:26:04.071Z,15.15
2023-01-23T07:27:06.987Z,16.40
2023-01-23T07:28:09.932Z,17.45
2023-01-23T07:29:14.230Z,18.10
2023-01-23T07:30:17.213Z,16.73
2023-01-23T07:31:20.275Z,15.77
2023-01-23T07:32:22.275Z,16.40
2023-01-23T07:33:25.142Z,18.33
2023-01-23T07:34:28.436Z,15.27
2023-01-23T07:35:31.539Z,18.38
2023-01-23T07:36:33.495Z,17.15
2023-01-23T07:37:36.977Z,17.83
2023-01-23T07:38:38.854Z,18.23
2023-01-23T07:39:41.889Z,17.80
2023-01-23T07:40:45.403Z,17.25
2023-01-23T07:41:48.321Z,18.77
2023-01-23T07:42:50.347Z,17.73
2023-01-23T07:43:53.290Z,18.10
2023-01-23T07:44:56.236Z,17.92
2023-01-23T07:45:59.110Z,18.63
2023-01-23T07:47:02.115Z,17.98
2023-01-23T07:48:04.320Z,17.40
2023-01-23T07:49:07.255Z,19.85
2023-01-23T07:50:13.888Z,15.75
2023-01-23T07:51:16.873Z,19.45
2023-01-23T07:52:18.839Z,18.70
2023-01-23T07:53:21.775Z,19.65
2023-01-23T07:54:23.787Z,16.38
2023-01-23T07:55:26.832Z,18.77
2023-01-23T07:56:28.877Z,20.70
2023-01-23T07:57:33.919Z,19.20
2023-01-23T07:58:36.884Z,17.17
2023-01-23T07:59:39.844Z,21.55
2023-01-23T08:00:42.267Z,18.20
2023-01-23T08:01:45.623Z,19.30
2023-01-23T08:02:47.611Z,19.83
2023-01-23T08:03:50.731Z,19.02
2023-01-23T08:04:52.720Z,17.27
2023-01-23T08:05:57.306Z,17.90
2023-01-23T08:06:59.305Z,18.55
2023-01-23T08:08:13.084Z,18.45
2023-01-23T08:09:16.289Z,18.65
2023-01-23T08:10:19.885Z,16.13
2023-01-23T08:11:23.966Z,16.60
2023-01-23T08:12:26.969Z,18.45
2023-01-23T08:13:29.940Z,18.02
2023-01-23T08:14:33.407Z,17.17
2023-01-23T08:15:38.117Z,17.15
2023-01-23T08:16:41.087Z,16.73
2023-01-23T08:17:44.005Z,16.00
2023-01-23T08:18:45.938Z,16.48
2023-01-23T08:19:48.901Z,15.00
2023-01-23T08:20:54.320Z,15.85
2023-01-23T08:21:58.681Z,16.15
2023-01-23T08:23:02.304Z,17.77
2023-01-23T08:24:06.041Z,15.63
2023-01-23T08:25:10.050Z,15.75
2023-01-23T08:26:14.832Z,15.20
2023-01-23T08:27:17.885Z,14.50
2023-01-23T08:28:20.888Z,16.13
2023-01-23T08:29:22.805Z,16.35
2023-01-23T08:30:25.726Z,15.25
2023-01-23T08:31:28.872Z,16.77
2023-01-23T08:32:30.999Z,15.75
2023-01-23T08:33:35.131Z,14.73
2023-01-23T08:34:37.058Z,14.80
2023-01-23T08:35:40.080Z,16.05
2023-01-23T08:36:43.237Z,14.82
2023-01-23T08:37:47.475Z,14.55
2023-01-23T08:38:49.381Z,14.50
2023-01-23T08:39:52.281Z,15.73
2023-01-23T08:40:58.151Z,15.85
2023-01-23T08:42:01.179Z,13.90
2023-01-23T08:43:04.038Z,13.80
2023-01-23T08:44:07.488Z,13.95
2023-01-23T08:45:11.313Z,14.93
2023-01-23T08:46:14.216Z,14.85
2023-01-23T08:47:17.145Z,12.82
2023-01-23T08:48:20.960Z,12.75
2023-01-23T08:49:22.874Z,13.90
2023-01-23T08:50:25.753Z,14.43
2023-01-23T08:51:28.841Z,13.93
2023-01-23T08:52:31.834Z,14.10
2023-01-23T08:53:36.365Z,14.30
2023-01-23T08:54:39.457Z,13.00
2023-01-23T08:55:41.894Z,12.73
2023-01-23T08:56:44.740Z,14.25
2023-01-23T08:57:46.681Z,12.77
2023-01-23T08:58:50.449Z,13.60
2023-01-23T08:59:53.394Z,15.10
2023-01-23T09:00:55.311Z,13.65
2023-01-23T09:01:58.228Z,12.43
2023-01-23T09:03:00.152Z,13.27
2023-01-23T09:04:03.015Z,13.65
2023-01-23T09:05:05.717Z,12.57
2023-01-23T09:06:09.056Z,12.35
2023-01-23T09:07:11.949Z,12.88
2023-01-23T09:08:13.937Z,13.82
2023-01-23T09:09:18.301Z,13.85
2023-01-23T09:10:21.602Z,13.40
2023-01-23T09:11:23.926Z,12.70
2023-01-23T09:12:26.814Z,12.23
2023-01-23T09:13:30.173Z,14.90
2023-01-23T09:14:33.093Z,15.23
2023-01-23T09:15:35.111Z,13.10
2023-01-23T09:16:39.257Z,12.35
2023-01-23T09:17:42.144Z,12.65
2023-01-23T09:18:45.051Z,15.07
2023-01-23T09:19:47.837Z,11.65
2023-01-23T09:20:49.831Z,13.60
2023-01-23T09:21:54.187Z,12.35
2023-01-23T09:22:56.082Z,12.18
2023-01-23T09:23:59.072Z,12.15
2023-01-23T09:25:02.640Z,13.15
2023-01-23T09:26:07.088Z,12.70
2023-01-23T09:27:10.334Z,11.93
2023-01-23T09:28:12.727Z,12.63
2023-01-23T09:29:15.722Z,14.20
2023-01-23T09:30:19.506Z,12.57
2023-01-23T09:31:22.669Z,12.50
2023-01-23T09:32:24.668Z,11.38
2023-01-23T09:33:27.559Z,14.45
2023-01-23T09:34:30.684Z,15.93
2023-01-23T09:35:33.635Z,13.20
2023-01-23T09:36:42.771Z,12.57
2023-01-23T09:38:00.056Z,13.27
2023-01-23T09:39:03.553Z,11.25
2023-01-23T09:40:15.879Z,12.60
2023-01-23T09:41:21.498Z,11.68
2023-01-23T09:42:30.511Z,12.95
2023-01-23T09:43:39.972Z,12.77
2023-01-23T09:44:47.730Z,11.45
2023-01-23T09:45:59.030Z,11.70
2023-01-23T09:47:08.640Z,13.57
2023-01-23T09:48:21.281Z,11.85
2023-01-23T09:49:29.700Z,14.45
2023-01-23T09:50:38.654Z,11.55
2023-01-23T09:51:54.112Z,12.15
2023-01-23T09:53:01.604Z,12.80
2023-01-23T09:54:15.512Z,11.98
2023-01-23T09:55:26.696Z,11.95
2023-01-23T09:56:32.575Z,12.80
2023-01-23T09:57:39.259Z,12.68
2023-01-23T09:58:47.226Z,13.23
2023-01-23T10:00:00.657Z,13.15
2023-01-23T10:01:03.146Z,12.00
2023-01-23T10:02:16.235Z,13.38
2023-01-23T10:03:18.233Z,12.60
2023-01-23T10:04:21.941Z,11.95
2023-01-23T10:05:32.578Z,13.73
2023-01-23T10:06:58.335Z,12.90
2023-01-23T10:08:15.671Z,11.90
2023-01-23T10:09:35.545Z,10.98
2023-01-23T10:10:50.605Z,10.85
2023-01-23T10:12:01.435Z,10.75
2023-01-23T10:13:09.195Z,11.63
2023-01-23T10:14:27.972Z,11.80
2023-01-23T10:16:02.535Z,11.73
2023-01-23T10:17:13.715Z,11.70
2023-01-23T10:18:25.159Z,11.13
2023-01-23T10:19:51.642Z,12.48
2023-01-23T10:21:10.173Z,12.50
2023-01-23T10:22:30.419Z,12.95
2023-01-23T10:23:52.735Z,11.18
2023-01-23T10:24:57.449Z,12.20
2023-01-23T10:26:05.056Z,11.60
2023-01-23T10:27:18.583Z,13.85
2023-01-23T10:28:31.826Z,10.85
2023-01-23T10:29:39.961Z,11.95
2023-01-23T10:30:44.639Z,12.48
2023-01-23T10:31:51.179Z,12.40
2023-01-23T10:32:57.501Z,11.48
2023-01-23T10:34:07.484Z,12.95
2023-01-23T10:35:15.515Z,11.48
2023-01-23T10:36:25.306Z,12.38
2023-01-23T10:37:39.564Z,14.02
2023-01-23T10:38:49.438Z,12.90
2023-01-23T10:39:58.670Z,13.88
2023-01-23T10:41:14.752Z,11.50
2023-01-23T10:42:21.838Z,13.80
2023-01-23T10:43:23.869Z,11.48
2023-01-23T10:44:26.742Z,11.68
2023-01-23T10:45:30.347Z,12.35
2023-01-23T10:46:37.664Z,13.32
2023-01-23T10:47:44.170Z,12.60
2023-01-23T10:48:49.704Z,12.73
2023-01-23T10:49:52.643Z,13.65
2023-01-23T10:50:55.402Z,12.05
2023-01-23T10:51:58.847Z,14.85
2023-01-23T10:53:08.146Z,13.32
2023-01-23T10:54:30.943Z,10.82
2023-01-23T10:55:35.022Z,11.57
2023-01-23T10:56:47.544Z,11.88
2023-01-23T10:57:54.847Z,8.07
2023-01-23T10:58:58.522Z,11.02
2023-01-23T11:00:04.615Z,11.20
2023-01-23T11:01:07.415Z,11.18
2023-01-23T11:02:21.091Z,12.45
2023-01-23T11:03:31.302Z,11.45
2023-01-23T11:04:36.219Z,13.15
2023-01-23T11:05:52.162Z,11.98
2023-01-23T11:07:08.379Z,12.48
2023-01-23T11:08:23.526Z,11.52
2023-01-23T11:09:26.441Z,13.43
2023-01-23T11:10:29.373Z,13.10
2023-01-23T11:11:32.832Z,12.90
2023-01-23T11:12:48.981Z,11.57
2023-01-23T11:14:02.825Z,11.35
2023-01-23T11:15:22.607Z,10.35
2023-01-23T11:16:24.728Z,10.05
2023-01-23T11:17:34.430Z,12.93
2023-01-23T11:18:43.049Z,12.52
2023-01-23T11:19:48.017Z,13.63
2023-01-23T11:20:57.805Z,12.35
2023-01-23T11:22:02.196Z,11.43
2023-01-23T11:23:14.918Z,12.95
2023-01-23T11:24:30.568Z,10.73
2023-01-23T11:25:42.313Z,11.93
2023-01-23T11:26:44.804Z,11.98
2023-01-23T11:27:58.100Z,11.10
2023-01-23T11:29:00.127Z,11.30
2023-01-23T11:30:31.246Z,11.93
2023-01-23T11:31:34.364Z,10.45
2023-01-23T11:32:44.258Z,11.90
2023-01-23T11:33:53.493Z,11.50
2023-01-23T11:35:12.705Z,11.00
2023-01-23T11:36:37.764Z,11.75
2023-01-23T11:37:56.872Z,9.40
2023-01-23T11:39:07.681Z,11.05
2023-01-23T11:40:15.202Z,12.15
2023-01-23T11:41:18.552Z,11.73
2023-01-23T11:42:21.634Z,10.45
2023-01-23T11:43:25.065Z,12.05
2023-01-23T11:44:32.373Z,12.35
2023-01-23T11:45:55.913Z,11.57
2023-01-23T11:47:17.992Z,13.00
2023-01-23T11:48:37.404Z,11.65
2023-01-23T11:50:07.802Z,9.30
2023-01-23T11:51:19.223Z,10.88
2023-01-23T11:52:37.235Z,11.85
2023-01-23T11:53:48.235Z,11.32
2023-01-23T11:55:09.483Z,10.77
2023-01-23T11:56:40.646Z,11.88
2023-01-23T11:57:57.958Z,10.52
2023-01-23T11:59:36.845Z,13.48
2023-01-23T12:00:45.493Z,10.13
2023-01-23T12:02:03.912Z,12.93
2023-01-23T12:03:41.265Z,10.00
2023-01-23T12:05:12.847Z,10.02
2023-01-23T12:06:35.705Z,10.70
2023-01-23T12:07:49.172Z,10.93
2023-01-23T12:08:59.609Z,12.35
2023-01-23T12:10:15.391Z,12.63
2023-01-23T12:11:20.222Z,13.45
2023-01-23T12:12:38.826Z,12.75
2023-01-23T12:14:00.448Z,11.93
2023-01-23T12:15:12.898Z,10.65
2023-01-23T12:16:24.309Z,12.90
2023-01-23T12:17:36.147Z,10.95
2023-01-23T12:18:50.431Z,11.70
2023-01-23T12:20:04.762Z,11.63
2023-01-23T12:21:14.017Z,12.05
2023-01-23T12:22:24.709Z,12.70
2023-01-23T12:23:41.220Z,13.13
2023-01-23T12:25:00.931Z,11.95
2023-01-23T12:26:14.109Z,12.63
2023-01-23T12:27:24.105Z,11.65
2023-01-23T12:28:42.776Z,13.02
2023-01-23T12:30:13.176Z,13.40
2023-01-23T12:31:40.983Z,10.80
2023-01-23T12:32:57.833Z,11.27
2023-01-23T12:34:14.367Z,13.05
2023-01-23T12:35:34.370Z,12.95
2023-01-23T12:37:12.364Z,11.27
2023-01-23T12:38:27.395Z,11.80
2023-01-23T12:39:49.969Z,11.75
2023-01-23T12:40:57.178Z,12.63
2023-01-23T12:42:04.057Z,11.73
2023-01-23T12:43:13.470Z,15.15
2023-01-23T12:44:22.320Z,12.63
2023-01-23T12:45:27.258Z,12.30
2023-01-23T12:46:37.444Z,12.50
2023-01-23T12:47:44.908Z,12.15
2023-01-23T12:48:54.729Z,14.23
2023-01-23T12:50:01.395Z,11.40
2023-01-23T12:51:10.381Z,12.63
2023-01-23T12:52:21.074Z,13.43
2023-01-23T12:53:23.678Z,10.40
2023-01-23T12:54:35.687Z,11.50
2023-01-23T12:55:42.025Z,12.57
2023-01-23T12:56:46.188Z,12.73
2023-01-23T12:58:00.001Z,13.68
2023-01-23T12:59:18.683Z,10.52
2023-01-23T13:00:32.583Z,11.20
2023-01-23T13:01:51.604Z,9.63
2023-01-23T13:03:06.546Z,11.20
2023-01-23T13:04:30.960Z,11.85
2023-01-23T13:05:41.308Z,10.52
2023-01-23T13:07:09.473Z,11.02
2023-01-23T13:08:20.720Z,11.40
2023-01-23T13:09:33.874Z,10.55
2023-01-23T13:11:15.398Z,12.90
2023-01-23T13:12:22.511Z,9.45
2023-01-23T13:13:25.157Z,10.32
2023-01-23T13:15:03.479Z,10.52
2023-01-23T13:16:12.697Z,10.27
2023-01-23T13:17:31.917Z,10.88
2023-01-23T13:18:55.828Z,11.65
2023-01-23T13:20:43.650Z,11.07
2023-01-23T13:22:04.769Z,9.85
2023-01-23T13:23:24.057Z,11.13
2023-01-23T13:24:50.738Z,10.27
2023-01-23T13:26:35.825Z,11.13
2023-01-23T13:27:41.054Z,11.02
2023-01-23T13:28:47.946Z,10.85
2023-01-23T13:29:50.812Z,11.45
2023-01-23T13:31:01.922Z,10.57
2023-01-23T13:32:23.467Z,11.25
2023-01-23T13:34:06.602Z,12.05
2023-01-23T13:35:46.771Z,10.00
2023-01-23T13:36:50.701Z,10.20
2023-01-23T13:37:52.670Z,9.95
2023-01-23T13:39:05.216Z,11.68
2023-01-23T13:40:17.190Z,10.35
2023-01-23T13:41:29.702Z,11.40
2023-01-23T13:42:36.704Z,11.65
2023-01-23T13:43:54.307Z,12.43
2023-01-23T13:45:30.048Z,12.48
2023-01-23T14:20:24.715Z,11.88
2023-01-23T14:21:40.821Z,12.13
2023-01-23T14:22:44.954Z,11.20
2023-01-23T14:23:53.316Z,12.05
2023-01-23T14:24:55.855Z,11.90
2023-01-23T14:25:59.101Z,12.02
2023-01-23T14:27:09.448Z,14.05
2023-01-23T14:28:16.569Z,12.60
2023-01-23T14:29:25.922Z,9.68
2023-01-23T14:30:30.336Z,11.95
2023-01-23T14:31:35.324Z,13.38
2023-01-23T14:32:38.674Z,12.40
2023-01-23T14:33:43.904Z,11.23
2023-01-23T14:34:46.809Z,12.38
2023-01-23T14:35:50.542Z,14.05
2023-01-23T14:37:00.135Z,12.23
2023-01-23T14:38:06.861Z,13.65
2023-01-23T14:39:17.831Z,12.82
2023-01-23T14:40:27.829Z,12.80
2023-01-23T14:41:38.240Z,13.30
2023-01-23T14:42:45.155Z,12.27
2023-01-23T14:43:48.271Z,13.50
2023-01-23T14:44:54.557Z,12.05
2023-01-23T14:46:03.417Z,13.73
2023-01-23T14:47:08.203Z,12.90
2023-01-23T14:48:16.344Z,11.20
2023-01-23T14:49:25.930Z,11.23
2023-01-23T14:50:30.610Z,13.70
2023-01-23T14:51:33.555Z,13.32
2023-01-23T14:52:35.459Z,12.15
2023-01-23T14:53:42.139Z,12.10
2023-01-23T14:54:53.372Z,13.65
2023-01-23T14:55:59.858Z,12.60
2023-01-23T14:57:05.607Z,11.98
2023-01-23T14:58:13.559Z,14.02